Ebenezer, Pennsylvania
Current Conditions -  °F | °C
As of 5:46 AM on Monday 22 Dec 2014 (Local Time) from KMUI Reporting Station
Broken Clouds Broken Clouds  
Wind Chill: 19°   Ceiling: 2200
Heat Index: 19°   Visibility: 10mi
Dew Point: 18°   Wind: 2mph
Humidity: 93%   Direction: 250°WSW
Pressure: 30.3"   Gusts: NA
Location:  40.2957°N, 76.4189°W
Report Text: KMUI 221046Z AUTO 25002KT 10SM BKN022 M07/M08 A3030 RMK AO2 BKN V FEW
Loading
Personal Weather Stations






























Interactive Weather Map New forecast layout! Learn more

10-Day Weather Forecast

Advertisements
Track Severe Weather on mobile